createdAt,value
2023-05-17T00:00:12.893Z,18.00
2023-05-17T00:02:41.555Z,17.25
2023-05-17T00:05:12.679Z,16.75
2023-05-17T00:07:41.269Z,17.75
2023-05-17T00:10:10.074Z,17.00
2023-05-17T00:12:38.533Z,17.25
2023-05-17T00:15:07.597Z,18.50
2023-05-17T00:17:38.417Z,15.50
2023-05-17T00:20:07.718Z,16.00
2023-05-17T00:22:36.332Z,15.00
2023-05-17T00:25:05.827Z,14.25
2023-05-17T00:27:34.241Z,15.75
2023-05-17T00:30:02.662Z,15.75
2023-05-17T00:32:31.094Z,17.50
2023-05-17T00:35:00.058Z,16.75
2023-05-17T00:37:28.629Z,15.00
2023-05-17T00:39:57.081Z,14.50
2023-05-17T00:42:25.611Z,16.25
2023-05-17T00:44:54.065Z,15.50
2023-05-17T00:47:22.572Z,16.50
2023-05-17T00:49:51.093Z,15.50
2023-05-17T00:52:20.280Z,16.00
2023-05-17T00:54:48.829Z,14.75
2023-05-17T00:57:17.762Z,15.25
2023-05-17T00:59:46.884Z,15.25
2023-05-17T01:02:15.337Z,14.50
2023-05-17T01:04:43.890Z,15.00
2023-05-17T01:07:12.664Z,15.25
2023-05-17T01:09:41.265Z,14.50
2023-05-17T01:12:40.071Z,17.00
2023-05-17T01:15:25.216Z,13.75
2023-05-17T01:18:12.730Z,14.75
2023-05-17T01:20:46.681Z,15.25
2023-05-17T01:23:33.412Z,16.00
2023-05-17T01:26:36.582Z,13.50
2023-05-17T01:29:10.128Z,13.75
2023-05-17T01:31:39.484Z,15.25
2023-05-17T01:34:11.438Z,14.00
2023-05-17T01:36:39.917Z,14.50
2023-05-17T01:39:09.627Z,12.00
2023-05-17T01:41:48.391Z,13.25
2023-05-17T01:44:27.398Z,12.75
2023-05-17T01:47:07.310Z,12.50
2023-05-17T01:49:40.347Z,13.50
2023-05-17T01:52:20.649Z,12.25
2023-05-17T01:54:52.136Z,11.75
2023-05-17T01:57:26.805Z,13.50
2023-05-17T02:00:01.014Z,10.50
2023-05-17T02:02:30.238Z,12.50
2023-05-17T02:04:59.491Z,11.50
2023-05-17T02:07:28.108Z,13.50
2023-05-17T02:09:56.586Z,13.75
2023-05-17T02:12:26.294Z,14.75
2023-05-17T02:14:54.725Z,12.25
2023-05-17T02:17:23.211Z,12.50
2023-05-17T02:19:51.740Z,13.50
2023-05-17T02:22:20.152Z,13.00
2023-05-17T02:24:49.857Z,13.75
2023-05-17T02:27:18.358Z,11.75
2023-05-17T02:29:46.793Z,13.00
2023-05-17T02:32:15.252Z,13.25
2023-05-17T02:34:43.676Z,12.25
2023-05-17T02:37:12.101Z,13.00
2023-05-17T02:39:40.648Z,10.25
2023-05-17T02:42:09.267Z,13.25
2023-05-17T02:44:37.673Z,13.50
2023-05-17T02:47:06.422Z,11.25
2023-05-17T02:49:34.914Z,11.50
2023-05-17T02:52:05.202Z,10.50
2023-05-17T02:54:33.678Z,11.00
2023-05-17T02:57:02.310Z,10.75
2023-05-17T02:59:30.747Z,12.25
2023-05-17T03:01:59.182Z,11.00
2023-05-17T03:04:27.736Z,12.00
2023-05-17T03:06:56.896Z,10.50
2023-05-17T03:09:25.325Z,11.75
2023-05-17T03:11:53.786Z,11.75
2023-05-17T03:14:22.463Z,12.50
2023-05-17T03:16:50.902Z,10.00
2023-05-17T03:19:19.517Z,10.25
2023-05-17T03:21:48.087Z,13.50
2023-05-17T03:24:16.660Z,11.75
2023-05-17T03:26:45.203Z,12.00
2023-05-17T03:29:13.640Z,10.75
2023-05-17T03:31:42.218Z,11.75
2023-05-17T03:34:10.697Z,11.75
2023-05-17T03:36:41.484Z,11.50
2023-05-17T03:39:09.990Z,11.75
2023-05-17T03:41:38.568Z,10.25
2023-05-17T03:44:07.172Z,11.50
2023-05-17T03:46:35.628Z,9.25
2023-05-17T03:49:04.509Z,10.75
2023-05-17T03:51:32.950Z,9.00
2023-05-17T03:54:02.550Z,9.00
2023-05-17T03:56:31.076Z,10.75
2023-05-17T03:58:59.636Z,8.50
2023-05-17T04:01:28.332Z,12.00
2023-05-17T04:03:56.965Z,9.25
2023-05-17T04:06:25.809Z,10.50
2023-05-17T04:08:55.980Z,9.00
2023-05-17T04:11:27.563Z,8.50
2023-05-17T04:13:57.822Z,9.00
2023-05-17T04:16:26.303Z,8.75
2023-05-17T04:18:55.081Z,9.00
2023-05-17T04:21:23.719Z,10.25
2023-05-17T04:23:52.537Z,7.75
2023-05-17T04:26:21.621Z,8.75
2023-05-17T04:28:50.055Z,8.00
2023-05-17T04:31:18.999Z,9.75
2023-05-17T04:33:47.891Z,9.50
2023-05-17T04:36:16.883Z,8.75
2023-05-17T04:38:45.337Z,7.75
2023-05-17T04:41:13.780Z,9.00
2023-05-17T04:43:43.211Z,10.00
2023-05-17T04:46:11.712Z,9.25
2023-05-17T04:48:40.322Z,7.50
2023-05-17T04:51:08.818Z,8.25
2023-05-17T04:53:37.310Z,9.00
2023-05-17T04:56:05.956Z,8.50
2023-05-17T04:58:34.566Z,9.75
2023-05-17T05:01:03.008Z,9.25
2023-05-17T05:03:31.470Z,8.50
2023-05-17T05:05:59.935Z,9.75
2023-05-17T05:08:28.355Z,9.00
2023-05-17T05:10:56.968Z,9.00
2023-05-17T05:13:25.459Z,8.25
2023-05-17T05:15:53.935Z,10.50
2023-05-17T05:18:22.705Z,9.00
2023-05-17T05:20:51.320Z,10.25
2023-05-17T05:23:19.767Z,10.00
2023-05-17T05:25:48.588Z,9.25
2023-05-17T05:28:17.153Z,9.25
2023-05-17T05:30:45.728Z,9.50
2023-05-17T05:33:14.357Z,9.75
2023-05-17T05:35:42.879Z,7.75
2023-05-17T05:38:11.372Z,6.75
2023-05-17T05:40:39.807Z,9.50
2023-05-17T05:43:08.223Z,9.50
2023-05-17T05:45:36.791Z,10.00
2023-05-17T05:48:06.507Z,10.00
2023-05-17T05:50:36.232Z,8.00
2023-05-17T05:53:17.482Z,9.75
2023-05-17T05:55:47.876Z,10.25
2023-05-17T05:58:16.781Z,11.25
2023-05-17T06:00:45.201Z,10.25
2023-05-17T06:03:13.667Z,11.25
2023-05-17T06:05:42.330Z,10.50
2023-05-17T06:08:10.897Z,9.50
2023-05-17T06:10:39.454Z,9.25
2023-05-17T06:13:08.298Z,11.25
2023-05-17T06:15:37.867Z,10.50
2023-05-17T06:18:06.636Z,10.25
2023-05-17T06:20:35.194Z,9.50
2023-05-17T06:23:06.084Z,10.50
2023-05-17T06:25:34.547Z,11.00
2023-05-17T06:28:04.658Z,9.50
2023-05-17T06:30:33.275Z,11.25
2023-05-17T06:33:01.901Z,10.75
2023-05-17T06:35:37.519Z,9.75
2023-05-17T06:38:12.768Z,11.50
2023-05-17T06:40:41.341Z,10.00
2023-05-17T06:43:09.753Z,9.50
2023-05-17T06:45:38.167Z,8.50
2023-05-17T06:48:06.871Z,10.25
2023-05-17T06:50:35.413Z,11.00
2023-05-17T06:53:04.157Z,9.25
2023-05-17T06:55:32.598Z,8.75
2023-05-17T06:58:01.514Z,9.75
2023-05-17T07:00:30.517Z,10.75
2023-05-17T07:02:59.391Z,9.25
2023-05-17T07:05:30.370Z,8.75
2023-05-17T07:08:00.777Z,9.00
2023-05-17T07:10:29.243Z,9.75
2023-05-17T07:12:57.736Z,8.25
2023-05-17T07:15:26.343Z,9.50
2023-05-17T07:17:55.008Z,9.25
2023-05-17T07:20:23.578Z,11.50
2023-05-17T07:22:52.022Z,9.00
2023-05-17T07:25:22.479Z,9.50
2023-05-17T07:27:51.008Z,8.75
2023-05-17T07:30:19.657Z,10.00
2023-05-17T07:32:48.150Z,10.50
2023-05-17T07:35:17.493Z,9.25
2023-05-17T07:37:47.177Z,9.25
2023-05-17T07:40:15.673Z,10.25
2023-05-17T07:42:44.179Z,9.25
2023-05-17T07:45:15.464Z,12.00
2023-05-17T07:47:44.085Z,8.25
2023-05-17T07:50:13.264Z,11.00
2023-05-17T07:52:41.816Z,9.25
2023-05-17T07:55:11.000Z,11.50
2023-05-17T07:57:39.450Z,10.00
2023-05-17T08:00:09.795Z,9.00
2023-05-17T08:02:38.336Z,10.25
2023-05-17T08:05:07.819Z,9.75
2023-05-17T08:07:36.301Z,10.50
2023-05-17T08:10:05.480Z,10.50
2023-05-17T08:12:34.048Z,8.75
2023-05-17T08:15:02.593Z,10.75
2023-05-17T08:17:31.106Z,9.75
2023-05-17T08:19:59.594Z,12.00
2023-05-17T08:22:28.533Z,9.75
2023-05-17T08:24:58.486Z,10.75
2023-05-17T08:27:28.094Z,10.50
2023-05-17T08:29:58.711Z,9.00
2023-05-17T08:32:27.309Z,11.00
2023-05-17T08:34:56.822Z,9.25
2023-05-17T08:37:25.998Z,9.75
2023-05-17T08:39:54.484Z,9.50
2023-05-17T08:42:27.712Z,9.00
2023-05-17T08:44:57.455Z,9.50
2023-05-17T08:47:35.183Z,9.25
2023-05-17T08:50:06.373Z,8.00
2023-05-17T08:52:36.650Z,7.50
2023-05-17T08:55:07.161Z,9.25
2023-05-17T08:57:40.246Z,9.25
2023-05-17T09:00:16.379Z,10.75
2023-05-17T09:02:45.021Z,10.25
2023-05-17T09:05:14.987Z,10.00
2023-05-17T09:07:43.977Z,11.00
2023-05-17T09:10:14.576Z,7.75
2023-05-17T09:12:43.484Z,8.25
2023-05-17T09:15:25.013Z,8.50
2023-05-17T09:17:55.523Z,8.50
2023-05-17T09:20:25.827Z,8.25
2023-05-17T09:22:57.020Z,8.50
2023-05-17T09:25:30.299Z,7.00
2023-05-17T09:28:03.629Z,8.75
2023-05-17T09:30:34.314Z,8.75
2023-05-17T09:33:11.455Z,8.75
2023-05-17T09:35:40.887Z,7.00
2023-05-17T09:38:14.072Z,8.50
2023-05-17T09:40:46.799Z,8.25
2023-05-17T09:43:16.143Z,7.25
2023-05-17T09:45:44.602Z,10.25
2023-05-17T09:48:13.193Z,9.50
2023-05-17T09:50:53.111Z,9.75
2023-05-17T09:53:33.198Z,9.75
2023-05-17T09:56:04.111Z,9.25
2023-05-17T09:58:38.894Z,10.25
2023-05-17T10:01:09.551Z,10.00
2023-05-17T10:03:39.350Z,10.00
2023-05-17T10:06:09.938Z,8.75
2023-05-17T10:08:46.190Z,8.25
2023-05-17T10:11:14.696Z,10.75
2023-05-17T10:14:06.984Z,11.00
2023-05-17T10:16:35.892Z,9.75
2023-05-17T10:19:05.139Z,7.75
2023-05-17T10:21:34.684Z,8.25
2023-05-17T10:24:07.808Z,7.75
2023-05-17T10:26:37.470Z,7.50
2023-05-17T10:29:07.474Z,7.25
2023-05-17T10:31:37.469Z,9.25
2023-05-17T10:34:07.527Z,7.00
2023-05-17T10:36:36.054Z,9.50
2023-05-17T10:39:08.960Z,9.00
2023-05-17T10:41:41.952Z,11.00
2023-05-17T10:44:14.984Z,13.75
2023-05-17T10:46:59.538Z,11.75
2023-05-17T10:49:32.801Z,12.50
2023-05-17T10:52:17.786Z,14.25
2023-05-17T10:54:51.084Z,11.00
2023-05-17T10:57:49.108Z,12.50
2023-05-17T11:00:22.115Z,10.50
2023-05-17T11:02:51.535Z,10.00
2023-05-17T11:05:28.359Z,10.75
2023-05-17T11:08:16.490Z,10.75
2023-05-17T11:11:12.553Z,10.00
2023-05-17T11:14:16.037Z,9.75
2023-05-17T11:16:45.132Z,11.50
2023-05-17T11:19:13.654Z,9.25
2023-05-17T11:21:49.705Z,8.00
2023-05-17T11:24:27.786Z,11.00
2023-05-17T11:26:59.238Z,8.75
2023-05-17T11:29:32.084Z,11.00
2023-05-17T11:32:00.682Z,9.75
2023-05-17T11:34:29.207Z,9.50
2023-05-17T11:36:57.966Z,9.75
2023-05-17T11:39:27.923Z,9.75
2023-05-17T11:41:57.623Z,10.75
2023-05-17T11:44:26.757Z,10.50
2023-05-17T11:47:04.219Z,12.75
2023-05-17T11:49:36.302Z,10.75
2023-05-17T11:52:07.481Z,10.75
2023-05-17T11:54:41.329Z,11.75
2023-05-17T11:57:10.794Z,11.00
2023-05-17T11:59:40.943Z,11.50
2023-05-17T12:02:09.445Z,13.25
2023-05-17T12:04:40.037Z,11.50
2023-05-17T12:07:12.169Z,13.00
2023-05-17T12:09:41.506Z,12.75
2023-05-17T12:12:10.577Z,11.50
2023-05-17T12:14:39.188Z,11.75
2023-05-17T12:17:10.686Z,13.00
2023-05-17T12:19:39.337Z,13.00
2023-05-17T12:22:15.079Z,13.50
2023-05-17T12:24:44.449Z,12.75
2023-05-17T12:27:13.038Z,14.00
2023-05-17T12:29:41.573Z,14.00
2023-05-17T12:32:12.081Z,12.25
2023-05-17T12:34:41.696Z,12.25
2023-05-17T12:37:11.430Z,14.25
2023-05-17T12:39:40.579Z,14.00
2023-05-17T12:42:10.273Z,12.75
2023-05-17T12:44:38.858Z,14.75
2023-05-17T12:47:07.578Z,15.50
2023-05-17T12:49:40.361Z,14.00
2023-05-17T12:52:08.996Z,12.50
2023-05-17T12:54:37.813Z,14.25
2023-05-17T12:57:16.150Z,16.00
2023-05-17T12:59:49.330Z,12.75
2023-05-17T13:02:18.676Z,15.50
2023-05-17T13:04:47.845Z,16.25
2023-05-17T13:07:26.009Z,16.25
2023-05-17T13:09:54.631Z,18.00
2023-05-17T13:12:26.609Z,17.25
2023-05-17T13:14:58.212Z,19.00
2023-05-17T13:17:28.821Z,17.50
2023-05-17T13:19:58.538Z,18.00
2023-05-17T13:22:27.571Z,15.50
2023-05-17T13:24:56.535Z,18.00
2023-05-17T13:27:24.984Z,17.50
2023-05-17T13:29:53.502Z,20.00
2023-05-17T13:32:23.049Z,21.50
2023-05-17T13:34:55.783Z,20.50
2023-05-17T13:37:24.285Z,22.50
2023-05-17T13:39:55.696Z,21.75
2023-05-17T13:42:24.789Z,21.50
2023-05-17T13:44:53.301Z,21.00
2023-05-17T13:47:22.249Z,21.25
2023-05-17T13:49:51.063Z,19.00
2023-05-17T13:52:19.906Z,17.75
2023-05-17T13:54:48.473Z,18.75
2023-05-17T13:57:17.044Z,18.75
2023-05-17T13:59:46.047Z,19.50
2023-05-17T14:02:14.636Z,19.50
2023-05-17T14:04:43.173Z,18.50
2023-05-17T14:07:11.655Z,23.00
2023-05-17T14:09:40.770Z,17.25
2023-05-17T14:12:09.387Z,18.50
2023-05-17T14:14:37.876Z,13.75
2023-05-17T14:17:06.469Z,26.00
2023-05-17T14:19:35.094Z,15.25
2023-05-17T14:22:03.674Z,15.00
2023-05-17T14:24:33.161Z,15.00
2023-05-17T14:27:03.498Z,14.75
2023-05-17T14:29:33.270Z,15.00
2023-05-17T14:32:01.759Z,14.25
2023-05-17T14:34:31.945Z,14.25
2023-05-17T14:37:00.417Z,16.25
2023-05-17T14:39:28.831Z,13.75
2023-05-17T14:41:57.763Z,14.50
2023-05-17T14:44:27.987Z,16.50
2023-05-17T14:46:56.478Z,15.75
2023-05-17T14:49:25.006Z,14.75
2023-05-17T14:51:53.586Z,13.00
2023-05-17T14:54:22.872Z,16.50
2023-05-17T14:56:51.444Z,14.25
2023-05-17T14:59:20.490Z,14.75
2023-05-17T15:01:48.999Z,11.50
2023-05-17T15:04:17.813Z,14.25
2023-05-17T15:06:46.807Z,15.50
2023-05-17T15:09:18.656Z,15.50
2023-05-17T15:11:47.207Z,14.50
2023-05-17T15:14:20.019Z,13.75
2023-05-17T15:16:49.642Z,14.75
2023-05-17T15:19:18.366Z,15.00
2023-05-17T15:21:47.595Z,15.25
2023-05-17T15:24:17.762Z,14.00
2023-05-17T15:26:46.601Z,14.50
2023-05-17T15:29:15.176Z,12.75
2023-05-17T15:31:43.621Z,16.00
2023-05-17T15:34:12.528Z,15.00
2023-05-17T15:36:41.174Z,18.50
2023-05-17T15:39:09.706Z,15.25
2023-05-17T15:41:38.457Z,14.75
2023-05-17T15:44:07.187Z,13.25
2023-05-17T15:46:35.703Z,14.25
2023-05-17T15:49:04.324Z,14.00
2023-05-17T15:51:32.841Z,13.75
2023-05-17T15:54:01.402Z,13.75
2023-05-17T15:56:30.052Z,15.50
2023-05-17T15:58:59.906Z,16.50
2023-05-17T16:01:30.338Z,13.50
2023-05-17T16:03:58.906Z,16.50
2023-05-17T16:06:27.614Z,17.75
2023-05-17T16:08:56.265Z,13.50
2023-05-17T16:11:25.601Z,14.50
2023-05-17T16:13:54.066Z,13.75
2023-05-17T16:16:22.545Z,13.00
2023-05-17T16:18:51.058Z,17.00
2023-05-17T16:21:19.633Z,16.75
2023-05-17T16:23:48.152Z,16.75
2023-05-17T16:26:16.719Z,15.25
2023-05-17T16:28:45.210Z,15.75
2023-05-17T16:31:13.894Z,16.25
2023-05-17T16:33:43.402Z,16.00
2023-05-17T16:36:13.334Z,14.75
2023-05-17T16:38:41.833Z,14.25
2023-05-17T16:41:10.419Z,16.50
2023-05-17T16:43:38.830Z,18.00
2023-05-17T16:46:07.349Z,15.75
2023-05-17T16:48:35.776Z,14.50
2023-05-17T16:51:04.244Z,15.00
2023-05-17T16:53:32.956Z,15.00
2023-05-17T16:56:01.732Z,13.00
2023-05-17T16:58:30.651Z,13.25
2023-05-17T17:00:59.256Z,15.50
2023-05-17T17:03:27.780Z,12.25
2023-05-17T17:05:56.317Z,14.25
2023-05-17T17:08:24.780Z,12.75
2023-05-17T17:10:53.185Z,13.25
2023-05-17T17:13:21.592Z,13.25
2023-05-17T17:15:52.013Z,13.75
2023-05-17T17:18:20.722Z,15.00
2023-05-17T17:20:49.192Z,14.00
2023-05-17T17:23:17.832Z,14.25
2023-05-17T17:25:46.450Z,14.00
2023-05-17T17:28:14.925Z,14.25
2023-05-17T17:30:43.500Z,13.75
2023-05-17T17:33:12.278Z,15.00
2023-05-17T17:35:40.812Z,13.50
2023-05-17T17:38:14.911Z,13.50
2023-05-17T17:40:43.394Z,13.50
2023-05-17T17:43:11.925Z,15.00
2023-05-17T17:45:40.547Z,15.50
2023-05-17T17:48:09.084Z,13.00
2023-05-17T17:50:37.682Z,15.00
2023-05-17T17:53:06.113Z,13.25
2023-05-17T17:55:34.815Z,16.00
2023-05-17T17:58:03.261Z,13.50
2023-05-17T18:00:31.997Z,14.50
2023-05-17T18:03:00.847Z,13.25
2023-05-17T18:05:29.460Z,16.00
2023-05-17T18:07:57.943Z,15.00
2023-05-17T18:10:26.434Z,14.75
2023-05-17T18:12:55.122Z,14.00
2023-05-17T18:15:23.625Z,18.75
2023-05-17T18:17:53.009Z,14.50
2023-05-17T18:20:23.699Z,14.50
2023-05-17T18:22:52.129Z,13.75
2023-05-17T18:25:21.439Z,14.00
2023-05-17T18:27:49.936Z,14.00
2023-05-17T18:30:19.583Z,15.50
2023-05-17T18:32:48.258Z,14.75
2023-05-17T18:35:17.005Z,13.75
2023-05-17T18:37:45.491Z,16.25
2023-05-17T18:40:16.110Z,13.75
2023-05-17T18:42:44.668Z,14.00
2023-05-17T18:45:13.168Z,13.50
2023-05-17T18:47:41.765Z,12.75
2023-05-17T18:50:11.117Z,15.25
2023-05-17T18:52:40.036Z,15.50
2023-05-17T18:55:08.702Z,14.00
2023-05-17T18:57:37.441Z,15.25
2023-05-17T19:00:06.321Z,14.25
2023-05-17T19:02:34.772Z,14.25
2023-05-17T19:05:03.300Z,16.75
2023-05-17T19:07:31.815Z,12.75
2023-05-17T19:10:00.336Z,17.75
2023-05-17T19:12:28.883Z,15.25
2023-05-17T19:14:57.439Z,15.75
2023-05-17T19:17:26.064Z,15.00
2023-05-17T19:19:54.553Z,14.25
2023-05-17T19:22:22.992Z,15.00
2023-05-17T19:24:51.778Z,15.00
2023-05-17T19:27:20.770Z,15.25
2023-05-17T19:29:49.944Z,17.25
2023-05-17T19:32:18.424Z,14.00
2023-05-17T19:34:47.097Z,16.25
2023-05-17T19:37:15.561Z,14.50
2023-05-17T19:39:43.996Z,16.75
2023-05-17T19:42:12.551Z,15.50
2023-05-17T19:44:41.088Z,14.50
2023-05-17T19:47:09.585Z,15.75
2023-05-17T19:49:38.277Z,16.00
2023-05-17T19:52:07.118Z,16.00
2023-05-17T19:54:35.635Z,15.00
2023-05-17T19:57:04.191Z,16.25
2023-05-17T19:59:32.832Z,17.75
2023-05-17T20:02:01.732Z,18.00
2023-05-17T20:04:30.203Z,15.50
2023-05-17T20:06:58.641Z,13.25
2023-05-17T20:09:31.093Z,15.25
2023-05-17T20:12:00.168Z,16.00
2023-05-17T20:14:29.213Z,15.00
2023-05-17T20:16:57.790Z,15.50
2023-05-17T20:19:26.416Z,15.25
2023-05-17T20:21:55.106Z,14.75
2023-05-17T20:24:25.774Z,13.75
2023-05-17T20:26:54.199Z,13.75
2023-05-17T20:29:22.610Z,14.75
2023-05-17T20:31:51.181Z,14.50
2023-05-17T20:34:19.750Z,15.75
2023-05-17T20:36:48.337Z,13.00
2023-05-17T20:39:16.904Z,14.25
2023-05-17T20:41:45.346Z,15.00
2023-05-17T20:44:19.608Z,16.75
2023-05-17T20:46:48.230Z,15.25
2023-05-17T20:49:18.013Z,14.75
2023-05-17T20:51:47.098Z,14.75
2023-05-17T20:54:15.927Z,15.25
2023-05-17T20:56:44.345Z,14.75
2023-05-17T20:59:13.165Z,16.00
2023-05-17T21:01:42.407Z,17.50
2023-05-17T21:04:12.144Z,15.50
2023-05-17T21:06:40.622Z,15.75
2023-05-17T21:09:09.366Z,16.25
2023-05-17T21:11:37.929Z,17.00
2023-05-17T21:14:06.585Z,16.50
2023-05-17T21:16:36.318Z,15.00
2023-05-17T21:19:04.977Z,13.75
2023-05-17T21:21:33.416Z,15.75
2023-05-17T21:24:01.964Z,13.25
2023-05-17T21:26:30.498Z,15.00
2023-05-17T21:28:59.001Z,18.00
2023-05-17T21:31:29.253Z,16.75
2023-05-17T21:33:59.550Z,15.75
2023-05-17T21:36:31.790Z,14.00
2023-05-17T21:39:02.835Z,17.00
2023-05-17T21:41:31.537Z,14.50
2023-05-17T21:44:01.722Z,15.75
2023-05-17T21:46:30.190Z,15.50
2023-05-17T21:49:01.796Z,14.25
2023-05-17T21:51:31.566Z,15.75
2023-05-17T21:54:03.113Z,17.00
2023-05-17T21:56:32.254Z,16.00
2023-05-17T21:59:02.189Z,15.00
2023-05-17T22:01:30.824Z,16.25
2023-05-17T22:04:01.781Z,15.75
2023-05-17T22:06:33.463Z,14.25
2023-05-17T22:09:03.208Z,14.75
2023-05-17T22:11:33.420Z,15.75
2023-05-17T22:14:06.696Z,15.50
2023-05-17T22:16:39.244Z,18.75
2023-05-17T22:19:19.726Z,15.50
2023-05-17T22:21:50.852Z,16.25
2023-05-17T22:24:22.482Z,16.25
2023-05-17T22:26:50.907Z,15.50
2023-05-17T22:29:20.678Z,16.25
2023-05-17T22:31:51.034Z,15.25
2023-05-17T22:34:23.593Z,16.50
2023-05-17T22:36:52.821Z,16.25
2023-05-17T22:39:23.516Z,14.75
2023-05-17T22:41:53.307Z,16.25
2023-05-17T22:44:25.401Z,16.50
2023-05-17T22:46:59.954Z,15.25
2023-05-17T22:49:28.638Z,16.50
2023-05-17T22:51:59.537Z,16.50
2023-05-17T22:54:27.989Z,15.50
2023-05-17T22:56:56.507Z,17.25
2023-05-17T22:59:24.950Z,17.00
2023-05-17T23:01:53.487Z,15.75
2023-05-17T23:04:27.058Z,18.25
2023-05-17T23:06:56.003Z,19.00
2023-05-17T23:09:24.738Z,17.50
2023-05-17T23:11:53.154Z,15.75
2023-05-17T23:14:22.821Z,16.25
2023-05-17T23:16:51.372Z,16.75
2023-05-17T23:19:19.909Z,18.00
2023-05-17T23:21:49.914Z,17.50
2023-05-17T23:24:18.636Z,16.00
2023-05-17T23:26:48.397Z,15.75
2023-05-17T23:29:16.802Z,15.50
2023-05-17T23:31:48.806Z,15.25
2023-05-17T23:34:17.425Z,17.50
2023-05-17T23:36:45.889Z,16.50
2023-05-17T23:39:14.435Z,16.50
2023-05-17T23:41:43.223Z,17.75
2023-05-17T23:44:12.048Z,16.00
2023-05-17T23:46:40.594Z,16.25
2023-05-17T23:49:09.038Z,15.00
2023-05-17T23:51:38.101Z,16.25
2023-05-17T23:54:06.825Z,16.25
2023-05-17T23:56:35.281Z,18.25
2023-05-17T23:59:03.711Z,14.50
